sensor_id;sensor_type;location;lat;lon;timestamp;pressure;altitude;pressure_sealevel;temperature;humidity
70158;BME280;57524;48.312;7.938;2022-07-10T00:00:54;99926.88;;;19.39;55.86
70158;BME280;57524;48.312;7.938;2022-07-10T00:03:21;99926.00;;;19.38;56.05
70158;BME280;57524;48.312;7.938;2022-07-10T00:05:48;99913.44;;;19.40;55.92
70158;BME280;57524;48.312;7.938;2022-07-10T00:08:16;99925.84;;;19.41;55.69
70158;BME280;57524;48.312;7.938;2022-07-10T00:10:43;99925.03;;;19.39;55.69
70158;BME280;57524;48.312;7.938;2022-07-10T00:13:10;99927.72;;;19.39;55.80
70158;BME280;57524;48.312;7.938;2022-07-10T00:15:36;99918.59;;;19.43;56.20
70158;BME280;57524;48.312;7.938;2022-07-10T00:18:03;99921.94;;;19.48;55.88
70158;BME280;57524;48.312;7.938;2022-07-10T00:20:29;99929.19;;;19.46;55.67
70158;BME280;57524;48.312;7.938;2022-07-10T00:22:56;99919.34;;;19.47;55.60
70158;BME280;57524;48.312;7.938;2022-07-10T00:25:24;99913.25;;;19.43;56.06
70158;BME280;57524;48.312;7.938;2022-07-10T00:27:51;99919.78;;;19.38;55.72
70158;BME280;57524;48.312;7.938;2022-07-10T00:30:18;99919.94;;;19.35;55.81
70158;BME280;57524;48.312;7.938;2022-07-10T00:32:45;99917.19;;;19.36;55.88
70158;BME280;57524;48.312;7.938;2022-07-10T00:35:11;99910.13;;;19.35;55.97
70158;BME280;57524;48.312;7.938;2022-07-10T00:37:38;99917.34;;;19.33;55.92
70158;BME280;57524;48.312;7.938;2022-07-10T00:40:06;99914.59;;;19.35;55.95
70158;BME280;57524;48.312;7.938;2022-07-10T00:42:34;99925.38;;;19.33;55.84
70158;BME280;57524;48.312;7.938;2022-07-10T00:45:00;99928.19;;;19.30;56.10
70158;BME280;57524;48.312;7.938;2022-07-10T00:47:27;99920.94;;;19.32;55.85
70158;BME280;57524;48.312;7.938;2022-07-10T00:49:54;99931.81;;;19.29;56.00
70158;BME280;57524;48.312;7.938;2022-07-10T00:52:21;99928.50;;;19.24;56.45
70158;BME280;57524;48.312;7.938;2022-07-10T00:54:49;99927.63;;;19.23;56.26
70158;BME280;57524;48.312;7.938;2022-07-10T00:57:17;99921.69;;;19.17;56.50
70158;BME280;57524;48.312;7.938;2022-07-10T00:59:47;99918.41;;;19.11;57.03
70158;BME280;57524;48.312;7.938;2022-07-10T01:02:15;99917.53;;;19.11;56.74
70158;BME280;57524;48.312;7.938;2022-07-10T01:04:42;99908.16;;;19.02;57.25
70158;BME280;57524;48.312;7.938;2022-07-10T01:07:09;99906.13;;;19.07;57.00
70158;BME280;57524;48.312;7.938;2022-07-10T01:09:36;99908.56;;;19.12;57.15
70158;BME280;57524;48.312;7.938;2022-07-10T01:12:04;99896.22;;;19.09;56.74
70158;BME280;57524;48.312;7.938;2022-07-10T01:14:31;99898.75;;;19.13;57.39
70158;BME280;57524;48.312;7.938;2022-07-10T01:16:59;99897.00;;;19.11;57.12
70158;BME280;57524;48.312;7.938;2022-07-10T01:19:26;99897.00;;;19.11;56.95
70158;BME280;57524;48.312;7.938;2022-07-10T01:21:54;99880.97;;;19.11;57.20
70158;BME280;57524;48.312;7.938;2022-07-10T01:24:21;99895.28;;;19.10;56.81
70158;BME280;57524;48.312;7.938;2022-07-10T01:26:47;99884.44;;;19.14;56.96
70158;BME280;57524;48.312;7.938;2022-07-10T01:29:14;99875.78;;;19.08;56.97
70158;BME280;57524;48.312;7.938;2022-07-10T01:31:41;99882.84;;;19.09;57.28
70158;BME280;57524;48.312;7.938;2022-07-10T01:34:09;99891.66;;;19.11;57.21
70158;BME280;57524;48.312;7.938;2022-07-10T01:36:37;99893.69;;;19.06;57.58
70158;BME280;57524;48.312;7.938;2022-07-10T01:39:05;99902.81;;;19.02;57.81
70158;BME280;57524;48.312;7.938;2022-07-10T01:41:32;99911.91;;;18.98;58.02
70158;BME280;57524;48.312;7.938;2022-07-10T01:43:59;99895.31;;;18.92;58.37
70158;BME280;57524;48.312;7.938;2022-07-10T01:46:26;99907.97;;;18.88;58.41
70158;BME280;57524;48.312;7.938;2022-07-10T01:48:53;99910.63;;;18.88;58.30
70158;BME280;57524;48.312;7.938;2022-07-10T01:51:20;99905.13;;;18.91;58.33
70158;BME280;57524;48.312;7.938;2022-07-10T01:53:46;99917.41;;;18.95;57.91
70158;BME280;57524;48.312;7.938;2022-07-10T01:56:16;99917.84;;;18.86;58.87
70158;BME280;57524;48.312;7.938;2022-07-10T01:58:43;99917.53;;;18.92;58.83
70158;BME280;57524;48.312;7.938;2022-07-10T02:01:10;99916.63;;;18.93;58.82
70158;BME280;57524;48.312;7.938;2022-07-10T02:03:37;99917.97;;;18.83;58.69
70158;BME280;57524;48.312;7.938;2022-07-10T02:06:21;99917.13;;;18.82;58.94
70158;BME280;57524;48.312;7.938;2022-07-10T02:08:48;99918.13;;;18.80;58.95
70158;BME280;57524;48.312;7.938;2022-07-10T02:11:16;99920.25;;;18.72;58.99
70158;BME280;57524;48.312;7.938;2022-07-10T02:13:43;99921.06;;;18.74;59.22
70158;BME280;57524;48.312;7.938;2022-07-10T02:16:10;99918.53;;;18.70;59.31
70158;BME280;57524;48.312;7.938;2022-07-10T02:18:37;99917.59;;;18.72;59.14
70158;BME280;57524;48.312;7.938;2022-07-10T02:21:04;99909.56;;;18.72;59.18
70158;BME280;57524;48.312;7.938;2022-07-10T02:23:31;99913.19;;;18.70;60.08
70158;BME280;57524;48.312;7.938;2022-07-10T02:25:57;99914.13;;;18.69;59.44
70158;BME280;57524;48.312;7.938;2022-07-10T02:28:25;99918.53;;;18.70;59.32
70158;BME280;57524;48.312;7.938;2022-07-10T02:30:52;99912.41;;;18.68;59.77
70158;BME280;57524;48.312;7.938;2022-07-10T02:33:19;99918.53;;;18.70;59.70
70158;BME280;57524;48.312;7.938;2022-07-10T02:35:45;99911.44;;;18.69;59.53
70158;BME280;57524;48.312;7.938;2022-07-10T02:38:12;99915.34;;;18.62;59.53
70158;BME280;57524;48.312;7.938;2022-07-10T02:40:40;99914.56;;;18.60;59.71
70158;BME280;57524;48.312;7.938;2022-07-10T02:43:06;99916.31;;;18.61;59.41
70158;BME280;57524;48.312;7.938;2022-07-10T02:45:34;99913.91;;;18.55;59.37
70158;BME280;57524;48.312;7.938;2022-07-10T02:48:01;99912.16;;;18.54;59.83
70158;BME280;57524;48.312;7.938;2022-07-10T02:50:28;99913.06;;;18.55;59.18
70158;BME280;57524;48.312;7.938;2022-07-10T02:52:54;99915.13;;;18.48;59.93
70158;BME280;57524;48.312;7.938;2022-07-10T02:55:21;99910.59;;;18.50;60.03
70158;BME280;57524;48.312;7.938;2022-07-10T02:57:48;99912.31;;;18.51;59.37
70158;BME280;57524;48.312;7.938;2022-07-10T03:00:14;99907.13;;;18.48;60.01
70158;BME280;57524;48.312;7.938;2022-07-10T03:02:42;99901.91;;;18.45;59.21
70158;BME280;57524;48.312;7.938;2022-07-10T03:05:09;99908.84;;;18.49;59.72
70158;BME280;57524;48.312;7.938;2022-07-10T03:07:36;99908.19;;;18.44;59.45
70158;BME280;57524;48.312;7.938;2022-07-10T03:10:03;99905.59;;;18.42;59.57
70158;BME280;57524;48.312;7.938;2022-07-10T03:12:30;99905.53;;;18.44;59.29
70158;BME280;57524;48.312;7.938;2022-07-10T03:14:56;99909.91;;;18.45;59.51
70158;BME280;57524;48.312;7.938;2022-07-10T03:17:24;99897.88;;;18.36;59.72
70158;BME280;57524;48.312;7.938;2022-07-10T03:19:52;99900.72;;;18.32;60.50
70158;BME280;57524;48.312;7.938;2022-07-10T03:22:19;99902.34;;;18.36;59.87
70158;BME280;57524;48.312;7.938;2022-07-10T03:24:46;99910.28;;;18.37;59.78
70158;BME280;57524;48.312;7.938;2022-07-10T03:27:13;99911.03;;;18.41;59.82
70158;BME280;57524;48.312;7.938;2022-07-10T03:29:40;99903.78;;;18.43;59.61
70158;BME280;57524;48.312;7.938;2022-07-10T03:32:07;99908.84;;;18.49;60.05
70158;BME280;57524;48.312;7.938;2022-07-10T03:34:34;99907.84;;;18.52;59.72
70158;BME280;57524;48.312;7.938;2022-07-10T03:37:02;99903.66;;;18.46;59.33
70158;BME280;57524;48.312;7.938;2022-07-10T03:39:29;99900.47;;;18.38;59.94
70158;BME280;57524;48.312;7.938;2022-07-10T03:41:56;99904.22;;;18.34;60.17
70158;BME280;57524;48.312;7.938;2022-07-10T03:44:22;99898.06;;;18.32;60.26
70158;BME280;57524;48.312;7.938;2022-07-10T03:46:49;99906.38;;;18.25;60.95
70158;BME280;57524;48.312;7.938;2022-07-10T03:49:16;99903.91;;;18.21;61.80
70158;BME280;57524;48.312;7.938;2022-07-10T03:51:42;99911.13;;;18.19;62.46
70158;BME280;57524;48.312;7.938;2022-07-10T03:54:10;99916.53;;;18.17;62.69
70158;BME280;57524;48.312;7.938;2022-07-10T03:56:37;99907.88;;;18.12;62.14
70158;BME280;57524;48.312;7.938;2022-07-10T03:59:21;99902.53;;;18.12;62.26
70158;BME280;57524;48.312;7.938;2022-07-10T04:01:48;99902.13;;;18.01;62.65
70158;BME280;57524;48.312;7.938;2022-07-10T04:04:15;99907.59;;;17.98;62.22
70158;BME280;57524;48.312;7.938;2022-07-10T04:06:41;99909.66;;;17.91;62.33
70158;BME280;57524;48.312;7.938;2022-07-10T04:09:08;99913.22;;;17.92;61.78
70158;BME280;57524;48.312;7.938;2022-07-10T04:11:36;99900.78;;;17.91;61.64
70158;BME280;57524;48.312;7.938;2022-07-10T04:14:03;99890.66;;;17.78;61.95
70158;BME280;57524;48.312;7.938;2022-07-10T04:16:29;99913.22;;;17.92;62.63
70158;BME280;57524;48.312;7.938;2022-07-10T04:18:56;99910.47;;;17.93;61.67
70158;BME280;57524;48.312;7.938;2022-07-10T04:21:23;99906.00;;;17.94;61.24
70158;BME280;57524;48.312;7.938;2022-07-10T04:23:49;99911.34;;;17.94;61.24
70158;BME280;57524;48.312;7.938;2022-07-10T04:26:16;99905.22;;;17.92;61.08
70158;BME280;57524;48.312;7.938;2022-07-10T04:28:44;99913.22;;;17.92;61.40
70158;BME280;57524;48.312;7.938;2022-07-10T04:31:11;99916.94;;;17.88;61.05
70158;BME280;57524;48.312;7.938;2022-07-10T04:33:37;99913.22;;;17.92;61.15
70158;BME280;57524;48.312;7.938;2022-07-10T04:36:04;99908.94;;;17.88;60.75
70158;BME280;57524;48.312;7.938;2022-07-10T04:38:31;99909.16;;;17.83;60.78
70158;BME280;57524;48.312;7.938;2022-07-10T04:40:58;99907.56;;;17.77;60.12
70158;BME280;57524;48.312;7.938;2022-07-10T04:43:25;99910.22;;;17.77;60.96
70158;BME280;57524;48.312;7.938;2022-07-10T04:45:53;99920.91;;;17.77;60.31
70158;BME280;57524;48.312;7.938;2022-07-10T04:48:19;99928.09;;;17.75;61.06
70158;BME280;57524;48.312;7.938;2022-07-10T04:50:46;99913.25;;;17.70;60.63
70158;BME280;57524;48.312;7.938;2022-07-10T04:53:12;99914.50;;;17.61;60.93
70158;BME280;57524;48.312;7.938;2022-07-10T04:55:39;99921.94;;;17.53;60.59
70158;BME280;57524;48.312;7.938;2022-07-10T04:58:06;99927.28;;;17.53;61.51
70158;BME280;57524;48.312;7.938;2022-07-10T05:00:33;99929.41;;;17.44;61.29
70158;BME280;57524;48.312;7.938;2022-07-10T05:03:01;99934.03;;;17.39;61.43
70158;BME280;57524;48.312;7.938;2022-07-10T05:05:27;99941.00;;;17.43;60.96
70158;BME280;57524;48.312;7.938;2022-07-10T05:07:54;99927.91;;;17.37;61.17
70158;BME280;57524;48.312;7.938;2022-07-10T05:10:20;99929.28;;;17.48;60.26
70158;BME280;57524;48.312;7.938;2022-07-10T05:12:48;99936.47;;;17.45;61.19
70158;BME280;57524;48.312;7.938;2022-07-10T05:15:14;99942.41;;;17.52;61.00
70158;BME280;57524;48.312;7.938;2022-07-10T05:17:41;99941.16;;;17.61;60.04
70158;BME280;57524;48.312;7.938;2022-07-10T05:20:10;99942.06;;;17.60;60.86
70158;BME280;57524;48.312;7.938;2022-07-10T05:22:37;99942.16;;;17.58;60.46
70158;BME280;57524;48.312;7.938;2022-07-10T05:25:04;99949.97;;;17.63;60.18
70158;BME280;57524;48.312;7.938;2022-07-10T05:27:30;99942.50;;;17.71;60.10
70158;BME280;57524;48.312;7.938;2022-07-10T05:29:57;99944.38;;;17.69;60.47
70158;BME280;57524;48.312;7.938;2022-07-10T05:32:24;99947.81;;;17.71;59.71
70158;BME280;57524;48.312;7.938;2022-07-10T05:34:50;99947.81;;;17.71;59.73
70158;BME280;57524;48.312;7.938;2022-07-10T05:37:19;99949.59;;;17.72;59.76
70158;BME280;57524;48.312;7.938;2022-07-10T05:39:45;99953.06;;;17.74;60.27
70158;BME280;57524;48.312;7.938;2022-07-10T05:42:12;99965.44;;;17.75;59.60
70158;BME280;57524;48.312;7.938;2022-07-10T05:44:39;99959.19;;;17.76;59.61
70158;BME280;57524;48.312;7.938;2022-07-10T05:47:05;99969.00;;;17.76;60.07
70158;BME280;57524;48.312;7.938;2022-07-10T05:53:21;99961.34;;;17.89;59.03
70158;BME280;57524;48.312;7.938;2022-07-10T05:55:47;99956.50;;;17.98;59.62
70158;BME280;57524;48.312;7.938;2022-07-10T05:58:14;99963.44;;;18.02;59.38
70158;BME280;57524;48.312;7.938;2022-07-10T06:00:41;99967.91;;;18.02;58.70
70158;BME280;57524;48.312;7.938;2022-07-10T06:03:09;99965.31;;;18.00;59.39
70158;BME280;57524;48.312;7.938;2022-07-10T06:05:36;99970.06;;;17.94;58.83
70158;BME280;57524;48.312;7.938;2022-07-10T06:08:03;99966.19;;;18.01;58.68
70158;BME280;57524;48.312;7.938;2022-07-10T06:10:31;99965.88;;;18.07;58.57
70158;BME280;57524;48.312;7.938;2022-07-10T06:12:57;99968.56;;;18.07;58.60
70158;BME280;57524;48.312;7.938;2022-07-10T06:15:24;99975.00;;;18.03;58.95
70158;BME280;57524;48.312;7.938;2022-07-10T06:17:51;99971.22;;;18.07;58.71
70158;BME280;57524;48.312;7.938;2022-07-10T06:20:17;99971.22;;;18.07;59.13
70158;BME280;57524;48.312;7.938;2022-07-10T06:22:44;99981.34;;;18.00;59.09
70158;BME280;57524;48.312;7.938;2022-07-10T06:25:10;99982.91;;;18.04;58.57
70158;BME280;57524;48.312;7.938;2022-07-10T06:27:39;99982.03;;;18.04;58.70
70158;BME280;57524;48.312;7.938;2022-07-10T06:30:06;99984.16;;;17.96;58.42
70158;BME280;57524;48.312;7.938;2022-07-10T06:32:33;99987.63;;;17.98;58.58
70158;BME280;57524;48.312;7.938;2022-07-10T06:35:00;99991.25;;;17.97;58.63
70158;BME280;57524;48.312;7.938;2022-07-10T06:37:27;99984.16;;;17.96;59.00
70158;BME280;57524;48.312;7.938;2022-07-10T06:39:53;99979.72;;;17.96;58.99
70158;BME280;57524;48.312;7.938;2022-07-10T06:42:20;99985.91;;;17.97;57.97
70158;BME280;57524;48.312;7.938;2022-07-10T06:44:50;99989.13;;;18.05;58.16
70158;BME280;57524;48.312;7.938;2022-07-10T06:47:18;99990.47;;;18.15;58.62
70158;BME280;57524;48.312;7.938;2022-07-10T06:50:03;99995.38;;;18.24;57.88
70158;BME280;57524;48.312;7.938;2022-07-10T06:52:31;99989.94;;;18.27;57.49
70158;BME280;57524;48.312;7.938;2022-07-10T06:54:57;99997.00;;;18.28;57.26
70158;BME280;57524;48.312;7.938;2022-07-10T06:57:24;99995.13;;;18.31;56.86
70158;BME280;57524;48.312;7.938;2022-07-10T06:59:52;99991.41;;;18.35;56.70
70158;BME280;57524;48.312;7.938;2022-07-10T07:02:19;99998.34;;;18.39;56.74
70158;BME280;57524;48.312;7.938;2022-07-10T07:04:46;99993.00;;;18.39;56.95
70158;BME280;57524;48.312;7.938;2022-07-10T07:07:13;99992.09;;;18.38;57.21
70158;BME280;57524;48.312;7.938;2022-07-10T07:09:40;99991.25;;;18.38;57.09
70158;BME280;57524;48.312;7.938;2022-07-10T07:12:08;99992.84;;;18.42;56.92
70158;BME280;57524;48.312;7.938;2022-07-10T07:14:35;99995.66;;;18.39;57.35
70158;BME280;57524;48.312;7.938;2022-07-10T07:17:04;99996.97;;;18.49;56.72
70158;BME280;57524;48.312;7.938;2022-07-10T07:19:31;100003.13;;;18.51;56.50
70158;BME280;57524;48.312;7.938;2022-07-10T07:22:19;100004.56;;;18.58;56.08
70158;BME280;57524;48.312;7.938;2022-07-10T07:25:03;100002.59;;;18.63;56.60
70158;BME280;57524;48.312;7.938;2022-07-10T07:27:30;100011.25;;;18.68;55.82
70158;BME280;57524;48.312;7.938;2022-07-10T07:29:57;100002.59;;;18.63;55.92
70158;BME280;57524;48.312;7.938;2022-07-10T07:32:24;100004.03;;;18.70;56.01
70158;BME280;57524;48.312;7.938;2022-07-10T07:34:51;100003.81;;;18.75;54.99
70158;BME280;57524;48.312;7.938;2022-07-10T07:37:18;99998.13;;;18.83;55.14
70158;BME280;57524;48.312;7.938;2022-07-10T07:39:44;100000.47;;;18.90;55.03
70158;BME280;57524;48.312;7.938;2022-07-10T07:42:11;100004.81;;;18.93;55.40
70158;BME280;57524;48.312;7.938;2022-07-10T07:44:38;100006.41;;;18.97;54.74
70158;BME280;57524;48.312;7.938;2022-07-10T07:47:04;100002.34;;;19.07;53.88
70158;BME280;57524;48.312;7.938;2022-07-10T07:49:35;100002.50;;;19.04;53.73
70158;BME280;57524;48.312;7.938;2022-07-10T07:52:02;100004.78;;;19.12;53.88
70158;BME280;57524;48.312;7.938;2022-07-10T07:54:29;100006.88;;;19.05;54.41
70158;BME280;57524;48.312;7.938;2022-07-10T07:56:55;100010.16;;;19.12;53.77
70158;BME280;57524;48.312;7.938;2022-07-10T07:59:23;100008.56;;;19.27;54.24
70158;BME280;57524;48.312;7.938;2022-07-10T08:01:49;100005.81;;;19.28;53.49
70158;BME280;57524;48.312;7.938;2022-07-10T08:04:16;100002.94;;;19.33;54.22
70158;BME280;57524;48.312;7.938;2022-07-10T08:06:44;100001.03;;;19.35;54.10
70158;BME280;57524;48.312;7.938;2022-07-10T08:09:11;99997.91;;;19.44;53.55
70158;BME280;57524;48.312;7.938;2022-07-10T08:15:25;99994.91;;;19.50;53.04
70158;BME280;57524;48.312;7.938;2022-07-10T08:17:53;100003.69;;;19.54;53.03
70158;BME280;57524;48.312;7.938;2022-07-10T08:20:20;99992.25;;;19.50;52.97
70158;BME280;57524;48.312;7.938;2022-07-10T08:22:49;99993.78;;;19.56;52.71
70158;BME280;57524;48.312;7.938;2022-07-10T08:25:16;99990.00;;;19.60;52.67
70158;BME280;57524;48.312;7.938;2022-07-10T08:27:43;99989.84;;;19.63;52.62
70158;BME280;57524;48.312;7.938;2022-07-10T08:30:10;99988.56;;;19.72;52.84
70158;BME280;57524;48.312;7.938;2022-07-10T08:32:37;99983.75;;;19.79;52.08
70158;BME280;57524;48.312;7.938;2022-07-10T08:35:05;99993.31;;;19.84;51.68
70158;BME280;57524;48.312;7.938;2022-07-10T08:37:36;99989.50;;;19.88;51.70
70158;BME280;57524;48.312;7.938;2022-07-10T08:40:07;99990.69;;;19.83;52.35
70158;BME280;57524;48.312;7.938;2022-07-10T08:42:35;99989.84;;;19.82;51.85
70158;BME280;57524;48.312;7.938;2022-07-10T08:45:02;99989.13;;;19.79;52.11
70158;BME280;57524;48.312;7.938;2022-07-10T08:47:28;99990.22;;;19.75;51.71
70158;BME280;57524;48.312;7.938;2022-07-10T08:49:57;99990.13;;;19.76;52.02
70158;BME280;57524;48.312;7.938;2022-07-10T08:52:26;99986.50;;;19.77;52.48
70158;BME280;57524;48.312;7.938;2022-07-10T08:54:53;99983.03;;;19.75;52.31
70158;BME280;57524;48.312;7.938;2022-07-10T08:57:22;99989.84;;;19.82;51.72
70158;BME280;57524;48.312;7.938;2022-07-10T08:59:49;99993.22;;;19.86;52.25
70158;BME280;57524;48.312;7.938;2022-07-10T09:02:16;99996.59;;;19.89;51.32
70158;BME280;57524;48.312;7.938;2022-07-10T09:04:42;99982.66;;;19.83;51.20
70158;BME280;57524;48.312;7.938;2022-07-10T09:07:09;99984.94;;;19.73;51.46
70158;BME280;57524;48.312;7.938;2022-07-10T09:09:51;100001.00;;;19.54;51.67
70158;BME280;57524;48.312;7.938;2022-07-10T09:12:18;99996.06;;;19.64;51.97
70158;BME280;57524;48.312;7.938;2022-07-10T09:14:46;99989.44;;;19.53;51.88
70158;BME280;57524;48.312;7.938;2022-07-10T09:17:13;99992.91;;;19.56;51.68
70158;BME280;57524;48.312;7.938;2022-07-10T09:19:39;99997.81;;;19.65;51.78
70158;BME280;57524;48.312;7.938;2022-07-10T09:22:08;99994.16;;;19.66;51.28
70158;BME280;57524;48.312;7.938;2022-07-10T09:24:36;99981.50;;;19.71;51.04
70158;BME280;57524;48.312;7.938;2022-07-10T09:27:04;99988.50;;;19.73;50.90
70158;BME280;57524;48.312;7.938;2022-07-10T09:29:31;99989.50;;;19.88;50.39
70158;BME280;57524;48.312;7.938;2022-07-10T09:32:00;99991.38;;;19.86;49.74
70158;BME280;57524;48.312;7.938;2022-07-10T09:34:37;99990.28;;;19.90;49.74
70158;BME280;57524;48.312;7.938;2022-07-10T09:37:20;99989.50;;;19.88;50.30
70158;BME280;57524;48.312;7.938;2022-07-10T09:39:58;100002.03;;;20.05;50.21
70158;BME280;57524;48.312;7.938;2022-07-10T09:42:29;99986.69;;;20.09;49.99
70158;BME280;57524;48.312;7.938;2022-07-10T09:45:16;99990.38;;;20.06;49.88
70158;BME280;57524;48.312;7.938;2022-07-10T09:47:46;99986.22;;;20.18;49.18
70158;BME280;57524;48.312;7.938;2022-07-10T09:50:21;99983.66;;;20.32;49.79
70158;BME280;57524;48.312;7.938;2022-07-10T09:52:50;99981.06;;;20.31;48.64
70158;BME280;57524;48.312;7.938;2022-07-10T09:55:19;99975.63;;;20.32;48.58
70158;BME280;57524;48.312;7.938;2022-07-10T09:57:52;99975.81;;;20.29;49.16
70158;BME280;57524;48.312;7.938;2022-07-10T10:00:20;99979.09;;;20.34;48.47
70158;BME280;57524;48.312;7.938;2022-07-10T10:02:56;99971.28;;;20.47;48.36
70158;BME280;57524;48.312;7.938;2022-07-10T10:05:28;99972.28;;;20.62;47.69
70158;BME280;57524;48.312;7.938;2022-07-10T10:08:00;99969.28;;;20.68;47.45
70158;BME280;57524;48.312;7.938;2022-07-10T10:10:28;99966.69;;;20.83;47.93
70158;BME280;57524;48.312;7.938;2022-07-10T10:12:59;99962.50;;;20.94;48.25
70158;BME280;57524;48.312;7.938;2022-07-10T10:15:30;99962.56;;;20.93;47.53
70158;BME280;57524;48.312;7.938;2022-07-10T10:18:02;99965.72;;;21.01;47.74
70158;BME280;57524;48.312;7.938;2022-07-10T10:20:30;99957.47;;;21.04;46.72
70158;BME280;57524;48.312;7.938;2022-07-10T10:23:04;99960.88;;;21.08;46.40
70158;BME280;57524;48.312;7.938;2022-07-10T10:25:32;99948.72;;;21.16;46.41
70158;BME280;57524;48.312;7.938;2022-07-10T10:28:00;99955.31;;;21.27;45.99
70158;BME280;57524;48.312;7.938;2022-07-10T10:30:27;99951.50;;;21.31;45.61
70158;BME280;57524;48.312;7.938;2022-07-10T10:32:55;99958.09;;;21.41;45.50
70158;BME280;57524;48.312;7.938;2022-07-10T10:35:44;99963.69;;;21.36;45.39
70158;BME280;57524;48.312;7.938;2022-07-10T10:38:12;99965.69;;;21.33;45.25
70158;BME280;57524;48.312;7.938;2022-07-10T10:40:39;99956.88;;;21.31;45.85
70158;BME280;57524;48.312;7.938;2022-07-10T10:43:17;99956.88;;;21.31;45.15
70158;BME280;57524;48.312;7.938;2022-07-10T10:45:44;99955.13;;;21.30;45.07
70158;BME280;57524;48.312;7.938;2022-07-10T10:48:13;99968.81;;;21.25;45.75
70158;BME280;57524;48.312;7.938;2022-07-10T10:50:41;99961.00;;;21.21;45.89
70158;BME280;57524;48.312;7.938;2022-07-10T10:53:17;99960.84;;;21.24;44.72
70158;BME280;57524;48.312;7.938;2022-07-10T10:56:22;99949.59;;;21.33;44.82
70158;BME280;57524;48.312;7.938;2022-07-10T10:58:49;99960.53;;;21.46;44.39
70158;BME280;57524;48.312;7.938;2022-07-10T11:01:29;99954.53;;;21.56;43.89
70158;BME280;57524;48.312;7.938;2022-07-10T11:04:16;99957.81;;;21.62;43.35
70158;BME280;57524;48.312;7.938;2022-07-10T11:06:44;99955.31;;;21.43;43.86
70158;BME280;57524;48.312;7.938;2022-07-10T11:09:24;99949.41;;;21.36;43.21
70158;BME280;57524;48.312;7.938;2022-07-10T11:11:58;99949.41;;;21.36;43.29
70158;BME280;57524;48.312;7.938;2022-07-10T11:14:27;99943.88;;;21.39;44.07
70158;BME280;57524;48.312;7.938;2022-07-10T11:16:54;99943.88;;;21.39;43.46
70158;BME280;57524;48.312;7.938;2022-07-10T11:19:22;99946.81;;;21.34;42.80
70158;BME280;57524;48.312;7.938;2022-07-10T11:21:55;99933.31;;;21.36;43.30
70158;BME280;57524;48.312;7.938;2022-07-10T11:24:38;99935.06;;;21.37;42.79
70158;BME280;57524;48.312;7.938;2022-07-10T11:27:18;99936.78;;;21.38;42.45
70158;BME280;57524;48.312;7.938;2022-07-10T11:29:56;99928.72;;;21.38;41.84
70158;BME280;57524;48.312;7.938;2022-07-10T11:32:23;99931.75;;;21.32;42.01
70158;BME280;57524;48.312;7.938;2022-07-10T11:34:50;99926.03;;;21.38;42.25
70158;BME280;57524;48.312;7.938;2022-07-10T11:37:16;99922.69;;;21.50;42.74
70158;BME280;57524;48.312;7.938;2022-07-10T11:39:44;99921.34;;;21.73;43.36
70158;BME280;57524;48.312;7.938;2022-07-10T11:42:11;99917.44;;;21.93;41.01
70158;BME280;57524;48.312;7.938;2022-07-10T11:44:38;99916.31;;;21.97;40.61
70158;BME280;57524;48.312;7.938;2022-07-10T11:47:05;99912.63;;;21.84;40.54
70158;BME280;57524;48.312;7.938;2022-07-10T11:49:33;99911.75;;;21.84;40.54
70158;BME280;57524;48.312;7.938;2022-07-10T11:52:01;99912.44;;;21.87;40.54
70158;BME280;57524;48.312;7.938;2022-07-10T11:54:29;99916.25;;;21.83;40.20
70158;BME280;57524;48.312;7.938;2022-07-10T11:57:04;99923.75;;;21.78;40.02
70158;BME280;57524;48.312;7.938;2022-07-10T11:59:32;99908.56;;;21.77;40.00
70158;BME280;57524;48.312;7.938;2022-07-10T12:01:58;99916.09;;;21.86;40.17
70158;BME280;57524;48.312;7.938;2022-07-10T12:04:29;99912.84;;;21.95;39.50
70158;BME280;57524;48.312;7.938;2022-07-10T12:06:56;99923.97;;;22.04;39.25
70158;BME280;57524;48.312;7.938;2022-07-10T12:09:23;99919.59;;;22.17;38.88
70158;BME280;57524;48.312;7.938;2022-07-10T12:12:03;99916.72;;;22.20;38.94
70158;BME280;57524;48.312;7.938;2022-07-10T12:14:30;99915.59;;;22.24;38.90
70158;BME280;57524;48.312;7.938;2022-07-10T12:16:58;99914.28;;;22.31;38.38
70158;BME280;57524;48.312;7.938;2022-07-10T12:19:27;99909.66;;;22.33;38.06
70158;BME280;57524;48.312;7.938;2022-07-10T12:21:56;99911.38;;;22.34;39.04
70158;BME280;57524;48.312;7.938;2022-07-10T12:24:25;99904.84;;;22.53;38.20
70158;BME280;57524;48.312;7.938;2022-07-10T12:26:52;99900.03;;;22.72;38.00
70158;BME280;57524;48.312;7.938;2022-07-10T12:29:23;99908.81;;;22.89;37.31
70158;BME280;57524;48.312;7.938;2022-07-10T12:31:52;99902.09;;;22.96;37.22
70158;BME280;57524;48.312;7.938;2022-07-10T12:34:20;99897.03;;;23.06;37.65
70158;BME280;57524;48.312;7.938;2022-07-10T12:36:48;99906.50;;;23.11;36.44
70158;BME280;57524;48.312;7.938;2022-07-10T12:39:17;99903.94;;;23.10;36.55
70158;BME280;57524;48.312;7.938;2022-07-10T12:41:57;99914.72;;;23.22;35.26
70158;BME280;57524;48.312;7.938;2022-07-10T12:44:33;99906.63;;;23.37;35.94
70158;BME280;57524;48.312;7.938;2022-07-10T12:47:01;99901.38;;;23.48;35.39
70158;BME280;57524;48.312;7.938;2022-07-10T12:49:28;99908.81;;;23.57;34.96
70158;BME280;57524;48.312;7.938;2022-07-10T12:51:54;99907.09;;;23.56;35.39
70158;BME280;57524;48.312;7.938;2022-07-10T12:54:34;99906.06;;;23.72;34.82
70158;BME280;57524;48.312;7.938;2022-07-10T12:57:03;99909.56;;;23.86;34.69
70158;BME280;57524;48.312;7.938;2022-07-10T12:59:34;99902.69;;;23.95;34.44
70158;BME280;57524;48.312;7.938;2022-07-10T13:02:14;99896.66;;;24.04;33.48
70158;BME280;57524;48.312;7.938;2022-07-10T13:04:51;99889.72;;;23.88;34.27
70158;BME280;57524;48.312;7.938;2022-07-10T13:07:18;99903.50;;;23.83;34.37
70158;BME280;57524;48.312;7.938;2022-07-10T13:09:47;99889.53;;;24.03;33.59
70158;BME280;57524;48.312;7.938;2022-07-10T13:12:15;99903.53;;;24.21;33.14
70158;BME280;57524;48.312;7.938;2022-07-10T13:14:43;99902.78;;;24.32;32.36